createdAt,value
2018-02-15T00:00:44.958Z,15.90
2018-02-15T00:03:12.603Z,15.90
2018-02-15T00:05:40.254Z,16.00
2018-02-15T00:08:07.917Z,16.00
2018-02-15T00:10:35.565Z,15.90
2018-02-15T00:13:03.226Z,15.90
2018-02-15T00:15:30.866Z,16.00
2018-02-15T00:17:59.385Z,15.90
2018-02-15T00:20:27.018Z,15.90
2018-02-15T00:22:54.696Z,15.90
2018-02-15T00:25:22.331Z,15.90
2018-02-15T00:27:49.963Z,15.90
2018-02-15T00:30:18.371Z,16.00
2018-02-15T00:32:46.127Z,15.90
2018-02-15T00:35:13.767Z,15.90
2018-02-15T00:37:42.173Z,15.90
2018-02-15T00:40:10.027Z,15.90
2018-02-15T00:42:38.438Z,15.90
2018-02-15T00:45:06.980Z,15.90
2018-02-15T00:47:34.626Z,15.90
2018-02-15T00:50:03.057Z,15.90
2018-02-15T00:52:31.375Z,15.90
2018-02-15T00:54:59.038Z,15.90
2018-02-15T00:57:27.985Z,15.90
2018-02-15T00:59:55.617Z,15.90
2018-02-15T01:02:23.262Z,15.90
2018-02-15T01:04:51.671Z,15.90
2018-02-15T01:07:19.313Z,15.90
2018-02-15T01:09:46.942Z,15.90
2018-02-15T01:12:14.690Z,15.90
2018-02-15T01:14:43.877Z,15.90
2018-02-15T01:17:11.525Z,15.90
2018-02-15T01:19:39.191Z,15.90
2018-02-15T01:22:06.847Z,15.90
2018-02-15T01:24:34.479Z,15.90
2018-02-15T01:27:02.175Z,15.80
2018-02-15T01:29:30.575Z,15.90
2018-02-15T01:31:58.275Z,15.80
2018-02-15T01:34:25.914Z,15.90
2018-02-15T01:36:54.315Z,15.90
2018-02-15T01:39:21.978Z,15.80
2018-02-15T01:41:49.611Z,15.90
2018-02-15T01:44:18.023Z,15.80
2018-02-15T01:46:45.670Z,15.80
2018-02-15T01:49:13.314Z,15.80
2018-02-15T01:51:41.806Z,15.80
2018-02-15T01:54:09.475Z,15.80
2018-02-15T01:56:37.107Z,15.80
2018-02-15T01:59:05.511Z,15.80
2018-02-15T02:01:33.139Z,15.80
2018-02-15T02:04:00.767Z,15.80
2018-02-15T02:06:28.446Z,15.80
2018-02-15T02:08:56.119Z,15.80
2018-02-15T02:11:23.754Z,15.80
2018-02-15T02:13:51.418Z,15.80
2018-02-15T02:16:19.061Z,15.80
2018-02-15T02:18:46.691Z,15.80
2018-02-15T02:21:14.370Z,15.80
2018-02-15T02:23:42.143Z,15.80
2018-02-15T02:26:09.800Z,15.80
2018-02-15T02:28:37.462Z,15.80
2018-02-15T02:31:05.109Z,15.80
2018-02-15T02:33:32.763Z,15.80
2018-02-15T02:36:00.435Z,15.80
2018-02-15T02:38:28.064Z,15.80
2018-02-15T02:40:56.483Z,15.80
2018-02-15T02:43:24.162Z,15.70
2018-02-15T02:45:51.926Z,15.80
2018-02-15T02:48:19.590Z,15.80
2018-02-15T02:50:47.333Z,15.80
2018-02-15T02:53:15.010Z,15.70
2018-02-15T02:55:42.642Z,15.80
2018-02-15T02:58:10.303Z,15.80
2018-02-15T03:00:37.946Z,15.70
2018-02-15T03:03:05.670Z,15.70
2018-02-15T03:05:33.335Z,15.70
2018-02-15T03:08:01.028Z,15.70
2018-02-15T03:10:28.654Z,15.70
2018-02-15T03:12:56.354Z,15.70
2018-02-15T03:15:24.058Z,15.70
2018-02-15T03:17:51.746Z,15.70
2018-02-15T03:20:20.163Z,15.70
2018-02-15T03:22:47.942Z,15.70
2018-02-15T03:25:15.586Z,15.70
2018-02-15T03:27:43.382Z,15.70
2018-02-15T03:30:11.054Z,15.70
2018-02-15T03:32:38.695Z,15.70
2018-02-15T03:35:06.356Z,15.70
2018-02-15T03:37:34.010Z,15.70
2018-02-15T03:40:01.679Z,15.60
2018-02-15T03:42:29.347Z,15.60
2018-02-15T03:44:57.005Z,15.60
2018-02-15T03:47:24.637Z,15.60
2018-02-15T03:49:52.271Z,15.60
2018-02-15T03:52:20.794Z,15.60
2018-02-15T03:54:48.552Z,15.60
2018-02-15T03:57:16.196Z,15.60
2018-02-15T03:59:43.874Z,15.60
2018-02-15T04:02:11.560Z,15.60
2018-02-15T04:04:39.202Z,15.60
2018-02-15T04:07:06.951Z,15.60
2018-02-15T04:09:34.598Z,15.60
2018-02-15T04:12:02.239Z,15.60
2018-02-15T04:14:30.654Z,15.60
2018-02-15T04:16:58.287Z,15.50
2018-02-15T04:19:25.923Z,15.60
2018-02-15T04:21:54.407Z,15.60
2018-02-15T04:24:22.815Z,15.60
2018-02-15T04:26:50.522Z,15.50
2018-02-15T04:29:18.358Z,15.60
2018-02-15T04:31:46.037Z,15.60
2018-02-15T04:34:13.797Z,15.50
2018-02-15T04:36:41.449Z,15.60
2018-02-15T04:39:09.103Z,15.60
2018-02-15T04:41:36.754Z,15.50
2018-02-15T04:44:04.441Z,15.50
2018-02-15T04:46:32.111Z,15.50
2018-02-15T04:48:59.744Z,15.50
2018-02-15T04:51:27.384Z,15.50
2018-02-15T04:53:55.046Z,15.50
2018-02-15T04:56:22.698Z,15.50
2018-02-15T04:58:50.396Z,15.50
2018-02-15T05:01:18.031Z,15.50
2018-02-15T05:03:45.662Z,15.50
2018-02-15T05:06:15.047Z,15.50
2018-02-15T05:08:42.678Z,15.50
2018-02-15T05:11:10.310Z,15.50
2018-02-15T05:13:38.077Z,15.50
2018-02-15T05:16:05.709Z,15.50
2018-02-15T05:18:34.102Z,15.50
2018-02-15T05:21:01.742Z,15.50
2018-02-15T05:23:30.133Z,15.50
2018-02-15T05:25:57.813Z,15.50
2018-02-15T05:28:25.438Z,15.50
2018-02-15T05:30:53.835Z,15.50
2018-02-15T05:33:21.478Z,15.50
2018-02-15T05:35:49.888Z,15.50
2018-02-15T05:38:17.539Z,15.40
2018-02-15T05:40:45.166Z,15.40
2018-02-15T05:43:13.569Z,15.40
2018-02-15T05:45:41.281Z,15.40
2018-02-15T05:48:08.926Z,15.40
2018-02-15T05:50:36.571Z,15.40
2018-02-15T05:53:04.211Z,15.40
2018-02-15T05:55:31.850Z,15.40
2018-02-15T05:58:00.242Z,15.40
2018-02-15T06:00:28.721Z,15.40
2018-02-15T06:02:57.126Z,15.40
2018-02-15T06:05:24.766Z,15.40
2018-02-15T06:07:52.425Z,15.40
2018-02-15T06:10:20.081Z,15.40
2018-02-15T06:12:48.613Z,15.40
2018-02-15T06:15:16.254Z,15.30
2018-02-15T06:17:43.882Z,15.40
2018-02-15T06:20:11.507Z,15.40
2018-02-15T06:22:39.142Z,15.40
2018-02-15T06:25:06.798Z,15.40
2018-02-15T06:27:34.467Z,15.40
2018-02-15T06:30:02.107Z,15.40
2018-02-15T06:32:29.748Z,15.30
2018-02-15T06:34:57.379Z,15.40
2018-02-15T06:37:25.011Z,15.30
2018-02-15T06:39:52.658Z,15.30
2018-02-15T06:42:20.337Z,15.30
2018-02-15T06:44:47.991Z,15.30
2018-02-15T06:47:15.635Z,15.30
2018-02-15T06:49:43.404Z,15.30
2018-02-15T06:52:11.075Z,15.30
2018-02-15T06:54:38.706Z,15.30
2018-02-15T06:57:06.333Z,15.30
2018-02-15T06:59:34.756Z,15.30
2018-02-15T07:02:02.409Z,15.30
2018-02-15T07:04:30.038Z,15.30
2018-02-15T07:06:58.431Z,15.30
2018-02-15T07:09:26.069Z,15.20
2018-02-15T07:11:54.480Z,15.20
2018-02-15T07:14:22.123Z,15.20
2018-02-15T07:16:49.792Z,15.20
2018-02-15T07:19:17.434Z,15.20
2018-02-15T07:21:45.835Z,15.20
2018-02-15T07:24:13.489Z,15.20
2018-02-15T07:26:41.160Z,15.20
2018-02-15T07:29:08.798Z,15.20
2018-02-15T07:31:37.423Z,15.20
2018-02-15T07:34:05.061Z,15.20
2018-02-15T07:36:32.717Z,15.20
2018-02-15T07:39:00.354Z,15.20
2018-02-15T07:41:28.801Z,15.20
2018-02-15T07:43:56.458Z,15.20
2018-02-15T07:46:24.090Z,15.20
2018-02-15T07:48:51.766Z,15.20
2018-02-15T07:51:19.454Z,15.20
2018-02-15T07:53:47.205Z,15.10
2018-02-15T07:56:14.897Z,15.20
2018-02-15T07:58:43.542Z,15.20
2018-02-15T08:01:11.184Z,15.20
2018-02-15T08:03:39.605Z,15.20
2018-02-15T08:06:07.255Z,15.20
2018-02-15T08:08:35.662Z,15.20
2018-02-15T08:11:04.187Z,15.20
2018-02-15T08:13:31.818Z,15.10
2018-02-15T08:15:59.485Z,15.10
2018-02-15T08:18:27.153Z,15.10
2018-02-15T08:20:54.823Z,15.10
2018-02-15T08:23:22.462Z,15.10
2018-02-15T08:25:50.095Z,15.10
2018-02-15T08:28:18.502Z,15.10
2018-02-15T08:30:46.142Z,15.10
2018-02-15T08:33:14.563Z,15.10
2018-02-15T08:35:42.207Z,15.10
2018-02-15T08:38:09.841Z,15.10
2018-02-15T08:40:38.239Z,15.10
2018-02-15T08:43:05.893Z,15.10
2018-02-15T08:45:33.539Z,15.10
2018-02-15T08:48:01.979Z,15.10
2018-02-15T08:50:29.668Z,15.10
2018-02-15T08:52:58.069Z,15.10
2018-02-15T08:55:25.712Z,15.10
2018-02-15T08:57:54.127Z,15.10
2018-02-15T09:00:21.774Z,15.10
2018-02-15T09:02:49.411Z,15.10
2018-02-15T09:05:17.818Z,15.10
2018-02-15T09:07:45.523Z,15.10
2018-02-15T09:10:13.277Z,15.10
2018-02-15T09:12:41.042Z,15.10
2018-02-15T09:15:08.691Z,15.10
2018-02-15T09:17:36.361Z,15.10
2018-02-15T09:20:04.037Z,15.10
2018-02-15T09:22:31.774Z,15.10
2018-02-15T09:24:59.651Z,15.10
2018-02-15T09:27:27.292Z,15.10
2018-02-15T09:29:54.935Z,15.10
2018-02-15T09:32:22.586Z,15.10
2018-02-15T09:34:50.226Z,15.10
2018-02-15T09:37:18.638Z,15.10
2018-02-15T09:39:46.287Z,15.00
2018-02-15T09:42:13.995Z,15.10
2018-02-15T09:44:41.646Z,15.10
2018-02-15T09:47:09.310Z,15.10
2018-02-15T09:49:36.954Z,15.10
2018-02-15T09:52:04.630Z,15.10
2018-02-15T09:54:32.277Z,15.10
2018-02-15T09:56:59.931Z,15.10
2018-02-15T09:59:27.602Z,15.10
2018-02-15T10:01:55.360Z,15.10
2018-02-15T10:04:23.015Z,15.10
2018-02-15T10:06:50.680Z,15.10
2018-02-15T10:09:18.314Z,15.10
2018-02-15T10:11:46.022Z,15.10
2018-02-15T10:14:13.686Z,15.10
2018-02-15T10:16:41.337Z,15.10
2018-02-15T10:19:08.994Z,15.10
2018-02-15T10:21:36.660Z,15.10
2018-02-15T10:24:04.414Z,15.00
2018-02-15T10:26:32.170Z,15.00
2018-02-15T10:28:59.823Z,15.00
2018-02-15T10:31:27.595Z,15.00
2018-02-15T10:33:55.246Z,15.00
2018-02-15T10:36:22.881Z,14.90
2018-02-15T10:38:50.531Z,14.90
2018-02-15T10:41:18.930Z,14.90
2018-02-15T10:43:46.582Z,14.90
2018-02-15T10:46:14.242Z,14.90
2018-02-15T10:48:41.951Z,14.90
2018-02-15T10:51:09.629Z,14.90
2018-02-15T10:53:37.279Z,14.80
2018-02-15T10:56:04.919Z,14.80
2018-02-15T10:58:32.606Z,14.80
2018-02-15T11:01:07.409Z,14.80
2018-02-15T11:03:35.120Z,14.80
2018-02-15T11:06:03.614Z,14.80
2018-02-15T11:08:31.262Z,14.80
2018-02-15T11:10:59.675Z,14.80
2018-02-15T11:13:27.343Z,14.80
2018-02-15T11:18:27.966Z,14.80
2018-02-15T11:20:55.769Z,14.80
2018-02-15T11:23:23.618Z,14.80
2018-02-15T11:25:51.378Z,14.80
2018-02-15T11:28:19.016Z,14.80
2018-02-15T11:30:46.662Z,14.80
2018-02-15T11:33:15.255Z,14.80
2018-02-15T11:35:42.910Z,14.80
2018-02-15T11:38:11.322Z,14.90
2018-02-15T11:40:38.981Z,14.80
2018-02-15T11:43:06.613Z,14.90
2018-02-15T11:45:34.324Z,14.90
2018-02-15T11:48:01.968Z,14.90
2018-02-15T11:50:29.605Z,14.90
2018-02-15T11:52:57.273Z,14.90
2018-02-15T11:55:24.915Z,14.90
2018-02-15T11:57:52.551Z,14.90
2018-02-15T12:00:20.234Z,15.00
2018-02-15T12:02:48.027Z,15.00
2018-02-15T12:05:15.674Z,15.00
2018-02-15T12:07:43.322Z,15.00
2018-02-15T12:10:10.954Z,15.00
2018-02-15T12:12:39.476Z,15.00
2018-02-15T12:15:07.144Z,15.00
2018-02-15T12:17:34.782Z,15.00
2018-02-15T12:20:02.431Z,15.00
2018-02-15T12:22:30.830Z,15.00
2018-02-15T12:24:58.469Z,15.00
2018-02-15T12:27:26.894Z,15.10
2018-02-15T12:29:54.530Z,15.00
2018-02-15T12:32:22.173Z,15.10
2018-02-15T12:34:49.873Z,15.10
2018-02-15T12:37:17.535Z,15.10
2018-02-15T12:39:45.183Z,15.10
2018-02-15T12:42:12.848Z,15.10
2018-02-15T12:44:40.485Z,15.10
2018-02-15T12:47:08.190Z,15.10
2018-02-15T12:49:35.932Z,15.10
2018-02-15T12:52:03.564Z,15.10
2018-02-15T12:54:31.207Z,15.10
2018-02-15T12:56:59.610Z,15.20
2018-02-15T12:59:27.239Z,15.10
2018-02-15T13:01:54.923Z,15.20
2018-02-15T13:04:22.616Z,15.20
2018-02-15T13:06:50.281Z,15.20
2018-02-15T13:09:17.923Z,15.20
2018-02-15T13:11:45.566Z,15.20
2018-02-15T13:14:13.198Z,15.20
2018-02-15T13:16:54.402Z,15.20
2018-02-15T13:19:33.883Z,15.20
2018-02-15T13:22:01.570Z,15.20
2018-02-15T13:24:29.233Z,15.20
2018-02-15T13:26:57.639Z,15.20
2018-02-15T13:29:25.274Z,15.20
2018-02-15T13:31:53.716Z,15.20
2018-02-15T13:34:21.364Z,15.20
2018-02-15T13:36:49.013Z,15.20
2018-02-15T13:39:16.712Z,15.20
2018-02-15T13:41:44.373Z,15.20
2018-02-15T13:44:12.805Z,15.30
2018-02-15T13:46:40.487Z,15.20
2018-02-15T13:49:08.126Z,15.30
2018-02-15T13:51:35.763Z,15.30
2018-02-15T13:54:04.163Z,15.30
2018-02-15T13:56:31.866Z,15.30
2018-02-15T13:58:59.525Z,15.30
2018-02-15T14:01:27.163Z,15.30
2018-02-15T14:03:54.814Z,15.30
2018-02-15T14:06:22.464Z,15.30
2018-02-15T14:08:50.119Z,15.30
2018-02-15T14:11:17.761Z,15.30
2018-02-15T14:13:46.189Z,15.30
2018-02-15T14:16:13.858Z,15.30
2018-02-15T14:18:41.584Z,15.30
2018-02-15T14:21:09.226Z,15.30
2018-02-15T14:23:37.658Z,15.30
2018-02-15T14:26:05.394Z,15.30
2018-02-15T14:28:33.048Z,15.40
2018-02-15T14:31:00.726Z,15.40
2018-02-15T14:33:28.391Z,15.40
2018-02-15T14:35:56.042Z,15.40
2018-02-15T14:41:36.539Z,15.40
2018-02-15T14:55:43.987Z,15.20
2018-02-15T14:58:11.690Z,15.20
2018-02-15T15:00:39.338Z,15.30
2018-02-15T15:03:07.022Z,15.30
2018-02-15T15:05:35.465Z,15.30
2018-02-15T15:08:09.127Z,15.30
2018-02-15T15:10:36.779Z,15.40
2018-02-15T15:13:05.234Z,15.40
2018-02-15T15:15:32.872Z,15.40
2018-02-15T15:18:01.289Z,15.40
2018-02-15T15:20:29.708Z,15.40
2018-02-15T15:22:57.367Z,15.50
2018-02-15T15:25:25.008Z,15.50
2018-02-15T15:27:53.415Z,15.50
2018-02-15T15:30:21.058Z,15.50
2018-02-15T15:32:48.757Z,15.50
2018-02-15T15:35:16.399Z,15.60
2018-02-15T15:37:44.648Z,15.50
2018-02-15T15:40:12.290Z,15.60
2018-02-15T15:42:39.944Z,15.60
2018-02-15T15:45:08.986Z,15.60
2018-02-15T15:47:36.622Z,15.60
2018-02-15T15:50:04.378Z,15.60
2018-02-15T15:52:32.037Z,15.60
2018-02-15T15:54:59.826Z,15.60
2018-02-15T15:57:27.484Z,15.70
2018-02-15T15:59:55.123Z,15.70
2018-02-15T16:02:22.798Z,15.70
2018-02-15T16:04:50.439Z,15.70
2018-02-15T16:07:18.071Z,15.70
2018-02-15T16:09:46.525Z,15.80
2018-02-15T16:12:14.178Z,15.80
2018-02-15T16:14:41.842Z,15.80
2018-02-15T16:17:09.522Z,15.80
2018-02-15T16:19:37.189Z,15.80
2018-02-15T16:22:05.605Z,15.80
2018-02-15T16:24:33.309Z,15.80
2018-02-15T16:27:01.079Z,15.80
2018-02-15T16:29:29.287Z,15.80
2018-02-15T16:31:57.717Z,15.90
2018-02-15T16:34:25.372Z,15.80
2018-02-15T16:36:53.033Z,15.90
2018-02-15T16:39:30.886Z,15.80
2018-02-15T16:41:59.308Z,15.90
2018-02-15T16:44:26.957Z,15.90
2018-02-15T16:46:54.614Z,15.90
2018-02-15T16:49:22.261Z,15.90
2018-02-15T16:51:49.913Z,15.90
2018-02-15T16:54:17.576Z,15.90
2018-02-15T16:56:45.254Z,15.90
2018-02-15T16:59:12.909Z,15.90
2018-02-15T17:01:40.575Z,15.90
2018-02-15T17:04:08.828Z,15.90
2018-02-15T17:06:36.482Z,16.00
2018-02-15T17:09:04.941Z,15.90
2018-02-15T17:11:32.578Z,15.90
2018-02-15T17:14:00.981Z,15.90
2018-02-15T17:16:29.403Z,16.00
2018-02-15T17:18:57.039Z,16.00
2018-02-15T17:21:25.453Z,16.00
2018-02-15T17:23:53.090Z,16.00
2018-02-15T17:26:20.761Z,16.00
2018-02-15T17:28:48.446Z,16.00
2018-02-15T17:31:16.850Z,16.00
2018-02-15T17:33:44.540Z,16.00
2018-02-15T17:36:12.187Z,16.00
2018-02-15T17:38:40.629Z,16.00
2018-02-15T17:41:08.298Z,16.00
2018-02-15T17:43:35.975Z,16.00
2018-02-15T17:46:03.729Z,16.00
2018-02-15T17:48:31.377Z,16.00
2018-02-15T17:50:59.027Z,16.00
2018-02-15T17:53:26.667Z,16.00
2018-02-15T17:55:54.304Z,16.00
2018-02-15T17:58:21.952Z,16.00
2018-02-15T18:00:50.390Z,16.00
2018-02-15T18:03:18.034Z,16.00
2018-02-15T18:05:45.678Z,16.00
2018-02-15T18:08:13.336Z,16.00
2018-02-15T18:10:40.975Z,16.00
2018-02-15T18:13:08.736Z,16.00
2018-02-15T18:15:37.163Z,16.10
2018-02-15T18:18:04.831Z,16.10
2018-02-15T18:20:33.266Z,16.10
2018-02-15T18:23:00.962Z,16.10
2018-02-15T18:25:28.630Z,16.10
2018-02-15T18:27:56.278Z,16.10
2018-02-15T18:30:23.963Z,16.10
2018-02-15T18:32:51.600Z,16.10
2018-02-15T18:35:19.236Z,16.10
2018-02-15T18:37:46.902Z,16.10
2018-02-15T18:40:14.563Z,16.10
2018-02-15T18:42:42.206Z,16.10
2018-02-15T18:45:09.859Z,16.10
2018-02-15T18:47:38.283Z,16.10
2018-02-15T18:50:05.922Z,16.10
2018-02-15T18:52:33.580Z,16.10
2018-02-15T18:55:01.319Z,16.10
2018-02-15T18:57:29.742Z,16.10
2018-02-15T18:59:57.378Z,16.10
2018-02-15T19:02:25.074Z,16.10
2018-02-15T19:04:52.718Z,16.10
2018-02-15T19:07:20.384Z,16.10
2018-02-15T19:09:48.033Z,16.10
2018-02-15T19:12:15.695Z,16.10
2018-02-15T19:14:43.369Z,16.10
2018-02-15T19:17:11.085Z,16.10
2018-02-15T19:19:39.484Z,16.10
2018-02-15T19:22:07.123Z,16.10
2018-02-15T19:24:35.558Z,16.10
2018-02-15T19:27:03.259Z,16.10
2018-02-15T19:29:31.711Z,16.10
2018-02-15T19:31:59.428Z,16.10
2018-02-15T19:34:27.156Z,16.10
2018-02-15T19:36:55.642Z,16.10
2018-02-15T19:39:24.136Z,16.10
2018-02-15T19:41:51.845Z,16.10
2018-02-15T19:44:19.543Z,16.10
2018-02-15T19:46:47.307Z,16.10
2018-02-15T19:49:15.787Z,16.10
2018-02-15T19:51:44.278Z,16.10
2018-02-15T19:54:12.743Z,16.10
2018-02-15T19:56:41.218Z,16.10
2018-02-15T19:59:09.647Z,16.10
2018-02-15T20:01:37.327Z,16.10
2018-02-15T20:04:06.606Z,16.10
2018-02-15T20:06:34.253Z,16.10
2018-02-15T20:09:01.971Z,16.10
2018-02-15T20:11:29.627Z,16.10
2018-02-15T20:13:57.315Z,16.10
2018-02-15T20:16:24.959Z,16.10
2018-02-15T20:18:53.398Z,16.10
2018-02-15T20:21:21.072Z,16.10
2018-02-15T20:23:48.767Z,16.10
2018-02-15T20:26:37.014Z,16.10
2018-02-15T20:29:05.449Z,16.10
2018-02-15T20:31:33.170Z,16.00
2018-02-15T20:34:00.814Z,16.00
2018-02-15T20:36:29.233Z,16.10
2018-02-15T20:39:02.410Z,16.10
2018-02-15T20:41:30.078Z,16.10
2018-02-15T20:43:57.731Z,16.10
2018-02-15T20:46:25.415Z,16.10
2018-02-15T20:48:53.055Z,16.10
2018-02-15T20:51:26.274Z,16.10
2018-02-15T20:53:59.598Z,16.10
2018-02-15T20:56:29.111Z,16.10
2018-02-15T20:58:58.343Z,16.00
2018-02-15T21:01:25.975Z,16.00
2018-02-15T21:03:54.408Z,16.10
2018-02-15T21:06:22.856Z,16.10
2018-02-15T21:08:52.170Z,16.10
2018-02-15T21:11:19.847Z,16.10
2018-02-15T21:13:47.525Z,16.10
2018-02-15T21:16:15.187Z,16.10
2018-02-15T21:18:42.851Z,16.10
2018-02-15T21:21:10.632Z,16.10
2018-02-15T21:23:39.118Z,16.10
2018-02-15T21:26:07.591Z,16.00
2018-02-15T21:28:36.023Z,16.10
2018-02-15T21:31:03.908Z,16.00
2018-02-15T21:33:31.575Z,16.10
2018-02-15T21:35:59.225Z,16.00
2018-02-15T21:38:27.017Z,16.00
2018-02-15T21:40:55.619Z,16.00
2018-02-15T21:43:23.274Z,16.00
2018-02-15T21:45:50.941Z,16.00
2018-02-15T21:48:18.621Z,16.00
2018-02-15T21:50:46.320Z,16.00
2018-02-15T21:53:14.012Z,16.00
2018-02-15T21:55:42.489Z,16.00
2018-02-15T21:58:10.973Z,16.00
2018-02-15T22:00:39.427Z,16.00
2018-02-15T22:03:07.070Z,16.00
2018-02-15T22:05:34.757Z,16.00
2018-02-15T22:08:03.173Z,16.00
2018-02-15T22:10:30.834Z,16.00
2018-02-15T22:12:58.546Z,16.00
2018-02-15T22:15:26.213Z,16.00
2018-02-15T22:17:53.862Z,16.00
2018-02-15T22:20:21.510Z,16.00
2018-02-15T22:22:49.165Z,16.00
2018-02-15T22:25:16.855Z,16.00
2018-02-15T22:27:44.590Z,16.00
2018-02-15T22:30:12.285Z,16.00
2018-02-15T22:32:40.737Z,16.00
2018-02-15T22:35:08.574Z,16.00
2018-02-15T22:37:36.336Z,16.00
2018-02-15T22:40:04.109Z,16.00
2018-02-15T22:42:31.753Z,16.00
2018-02-15T22:44:59.520Z,16.00
2018-02-15T22:47:27.189Z,16.00
2018-02-15T22:49:54.861Z,16.00
2018-02-15T22:52:22.531Z,16.00
2018-02-15T22:54:50.198Z,16.00
2018-02-15T22:57:17.855Z,16.00
2018-02-15T22:59:45.577Z,16.00
2018-02-15T23:02:13.225Z,16.00
2018-02-15T23:04:40.898Z,16.00
2018-02-15T23:07:08.555Z,16.00
2018-02-15T23:09:36.202Z,16.00
2018-02-15T23:12:03.928Z,16.00
2018-02-15T23:14:31.586Z,16.00
2018-02-15T23:16:59.231Z,16.00
2018-02-15T23:19:26.927Z,16.00
2018-02-15T23:21:55.334Z,16.00
2018-02-15T23:24:23.068Z,16.00
2018-02-15T23:26:51.495Z,15.90
2018-02-15T23:29:19.162Z,15.90
2018-02-15T23:31:46.841Z,16.00
2018-02-15T23:34:14.525Z,15.90
2018-02-15T23:36:42.952Z,16.00
2018-02-15T23:39:10.593Z,15.90
2018-02-15T23:41:38.260Z,15.90
2018-02-15T23:44:05.918Z,15.90
2018-02-15T23:46:33.629Z,15.90
2018-02-15T23:49:01.282Z,15.90
2018-02-15T23:51:28.931Z,15.90
2018-02-15T23:53:56.578Z,15.90
2018-02-15T23:56:24.221Z,15.90
2018-02-15T23:58:51.904Z,15.90
